Time;durP1;ratioP1;P1;durP2;ratioP2;P2;SDS_P1;SDS_P2;PMS_P1;PMS_P2;Temp;Humidity;BMP_temperature;BMP_pressure;BME280_temperature;BME280_humidity;BME280_pressure;Samples;Min_cycle;Max_cycle;Signal;HPM_P1;HPM_P2
2021/12/14 00:01:31;;;;;;;11.60;8.30;;;;;;;7.91;75.40;101186.66;5043196;28;20035;-79
2021/12/14 00:04:01;;;;;;;15.38;8.35;;;;;;;7.95;75.12;101190.88;5042160;28;20014;-79
2021/12/14 00:06:27;;;;;;;9.95;7.65;;;;;;;8.02;75.08;101195.75;5045254;28;20028;-79
2021/12/14 00:08:57;;;;;;;11.93;7.95;;;;;;;7.97;76.17;101197.84;5037739;28;20083;-78
2021/12/14 00:15:02;;;;;;;10.50;6.80;;;;;;;7.99;75.57;101200.44;5044180;28;20033;-79
2021/12/14 00:17:17;;;;;;;10.23;7.45;;;;;;;8.08;75.90;101205.22;5042315;28;20029;-79
2021/12/14 00:19:43;;;;;;;9.73;7.18;;;;;;;7.94;75.28;101210.56;5025386;28;20028;-78
2021/12/14 00:24:54;;;;;;;10.57;7.25;;;;;;;7.78;74.71;101207.97;5039988;28;20031;-78
2021/12/14 00:27:22;;;;;;;16.20;9.15;;;;;;;7.71;74.98;101209.28;5043431;28;20021;-77
2021/12/14 00:29:53;;;;;;;11.88;7.88;;;;;;;7.58;75.70;101200.28;5045033;28;20032;-78
2021/12/14 00:32:24;;;;;;;12.35;7.65;;;;;;;7.60;76.58;101206.41;5043647;28;20056;-78
2021/12/14 00:34:53;;;;;;;11.93;7.90;;;;;;;7.61;76.49;101211.66;5041857;28;20079;-78
2021/12/14 00:37:23;;;;;;;12.63;8.43;;;;;;;7.59;77.13;101218.03;5040573;28;20025;-78
2021/12/14 00:39:51;;;;;;;16.80;8.85;;;;;;;7.56;77.27;101215.56;5044068;28;20027;-78
2021/12/14 00:42:17;;;;;;;12.07;7.75;;;;;;;7.44;77.28;101198.41;5041928;28;20018;-78
2021/12/14 00:44:43;;;;;;;12.77;7.82;;;;;;;7.37;76.75;101215.78;5039723;28;20029;-77
2021/12/14 00:47:09;;;;;;;13.27;8.45;;;;;;;7.19;77.70;101198.13;5044541;28;20411;-77
2021/12/14 00:49:35;;;;;;;13.27;8.77;;;;;;;7.29;78.07;101211.84;5044221;28;20033;-77
2021/12/14 00:52:03;;;;;;;12.80;8.65;;;;;;;7.37;77.93;101205.06;5041835;28;20048;-79
2021/12/14 00:54:28;;;;;;;14.57;8.57;;;;;;;7.44;79.39;101209.13;5046506;28;20029;-76
2021/12/14 00:56:54;;;;;;;17.00;10.05;;;;;;;7.35;79.04;101214.16;5059144;28;20036;-76
2021/12/14 00:59:21;;;;;;;14.35;9.10;;;;;;;7.38;79.33;101217.50;5042593;28;20075;-77
2021/12/14 01:01:52;;;;;;;14.40;7.93;;;;;;;7.28;78.47;101219.00;5045760;28;20075;-76
2021/12/14 01:04:26;;;;;;;12.50;8.15;;;;;;;7.11;78.32;101216.44;5044343;28;20028;-76
2021/12/14 01:06:52;;;;;;;13.15;7.78;;;;;;;7.05;78.25;101211.44;5045970;28;20025;-76
2021/12/14 01:09:30;;;;;;;19.13;9.68;;;;;;;7.06;79.42;101218.53;5029118;28;20433;-76
2021/12/14 01:12:04;;;;;;;13.57;8.57;;;;;;;6.99;79.49;101211.81;5043700;28;20021;-76
2021/12/14 01:14:41;;;;;;;10.93;6.75;;;;;;;6.94;78.98;101216.56;5045180;28;20025;-76
2021/12/14 01:17:14;;;;;;;13.60;8.40;;;;;;;6.86;79.68;101205.41;5045746;28;20040;-76
2021/12/14 01:19:51;;;;;;;14.13;8.35;;;;;;;6.85;81.06;101215.25;5046150;28;20045;-75
2021/12/14 01:22:42;;;;;;;13.23;7.90;;;;;;;6.72;80.28;101205.34;5047057;28;20040;-76
2021/12/14 01:25:14;;;;;;;11.80;6.82;;;;;;;6.68;80.66;101207.31;5046945;28;21684;-76
2021/12/14 01:28:03;;;;;;;12.10;6.57;;;;;;;6.67;80.99;101194.03;5044034;28;20515;-75
2021/12/14 01:30:33;;;;;;;12.63;7.65;;;;;;;6.62;81.85;101201.47;5043411;28;20260;-76
2021/12/14 01:33:03;;;;;;;11.02;7.43;;;;;;;6.61;82.23;101205.94;5028752;28;20029;-77
2021/12/14 01:35:32;;;;;;;10.43;6.25;;;;;;;6.65;82.20;101201.28;5046947;28;20021;-76
2021/12/14 01:38:04;;;;;;;13.57;6.68;;;;;;;6.58;81.81;101187.41;5042774;28;20026;-76
2021/12/14 01:43:40;;;;;;;10.32;6.75;;;;;;;6.68;82.07;101195.78;5013278;28;20032;-76
2021/12/14 01:46:29;;;;;;;10.63;6.50;;;;;;;6.72;82.51;101200.00;5048729;28;20026;-76
2021/12/14 01:48:55;;;;;;;12.48;6.90;;;;;;;6.71;82.65;101196.47;5038336;28;20033;-76
2021/12/14 01:51:22;;;;;;;9.38;5.85;;;;;;;6.67;81.97;101205.59;5048061;28;20021;-77
2021/12/14 01:53:51;;;;;;;10.05;6.03;;;;;;;6.75;81.85;101205.19;5027381;28;20372;-76
2021/12/14 01:56:21;;;;;;;9.98;6.55;;;;;;;6.79;81.70;101210.25;5041589;28;20028;-75
2021/12/14 01:58:51;;;;;;;11.10;6.40;;;;;;;6.76;81.76;101206.91;5049144;28;20344;-76
2021/12/14 02:01:24;;;;;;;8.63;5.82;;;;;;;6.82;81.42;101214.59;5056261;28;20021;-76
2021/12/14 02:03:57;;;;;;;9.40;5.60;;;;;;;6.78;81.02;101202.34;5047619;28;20032;-75
2021/12/14 02:06:27;;;;;;;;;;;;;;;6.71;81.23;101203.63;5045700;28;20009;-76
2021/12/14 02:09:00;;;;;;;11.10;5.78;;;;;;;6.77;81.40;101208.63;5046654;28;19908;-76
2021/12/14 02:11:31;;;;;;;9.73;6.75;;;;;;;6.73;81.23;101205.25;5046746;28;20017;-76
2021/12/14 02:13:57;;;;;;;9.23;6.57;;;;;;;6.73;81.81;101204.41;5045291;28;20103;-76
2021/12/14 02:16:23;;;;;;;11.57;6.63;;;;;;;6.84;81.98;101218.03;5045615;28;20172;-76
2021/12/14 02:18:52;;;;;;;9.90;7.18;;;;;;;6.89;82.24;101210.59;5044881;28;20029;-77
2021/12/14 02:21:20;;;;;;;11.13;6.90;;;;;;;6.92;81.44;101215.75;5046121;28;20037;-78
2021/12/14 02:23:51;;;;;;;8.45;6.07;;;;;;;6.94;81.14;101208.53;5046141;28;20091;-77
2021/12/14 02:26:20;;;;;;;10.38;6.43;;;;;;;6.91;80.97;101214.06;5040443;28;20101;-77
2021/12/14 02:28:46;;;;;;;14.05;7.20;;;;;;;6.88;80.89;101208.88;5026859;28;20123;-76
2021/12/14 02:31:16;;;;;;;10.68;7.30;;;;;;;6.85;80.75;101204.56;5046080;28;20032;-76
2021/12/14 02:33:45;;;;;;;15.40;8.80;;;;;;;6.86;80.04;101210.75;5052804;28;20455;-75
2021/12/14 02:36:20;;;;;;;14.15;8.18;;;;;;;6.89;80.13;101218.63;5054916;28;20355;-75
2021/12/14 02:38:53;;;;;;;10.52;7.00;;;;;;;6.75;80.14;101202.50;5042893;28;20455;-75
2021/12/14 02:41:19;;;;;;;12.75;7.57;;;;;;;6.74;80.12;101204.31;5042372;28;20036;-76
2021/12/14 02:43:49;;;;;;;14.10;8.23;;;;;;;6.75;81.09;101213.19;5046589;28;20024;-76
2021/12/14 02:46:19;;;;;;;12.43;7.78;;;;;;;6.72;80.99;101208.03;5040997;28;20043;-76
2021/12/14 02:48:52;;;;;;;12.48;7.25;;;;;;;6.66;81.13;101209.22;5044384;28;20021;-76
2021/12/14 02:51:26;;;;;;;15.80;8.35;;;;;;;6.69;81.40;101208.19;5044818;28;20100;-75
2021/12/14 02:53:56;;;;;;;13.75;9.57;;;;;;;6.69;81.86;101205.53;5027316;28;20027;-75
2021/12/14 02:56:26;;;;;;;14.88;9.63;;;;;;;6.70;81.91;101209.91;5044427;28;20456;-76
2021/12/14 02:58:58;;;;;;;14.63;9.38;;;;;;;6.67;81.11;101204.72;5042851;28;20469;-77
2021/12/14 03:01:24;;;;;;;;;;;;;;;6.57;80.96;101210.59;5044165;28;20116;-77
2021/12/14 03:03:50;;;;;;;13.63;8.30;;;;;;;6.48;81.00;101211.09;5044952;28;19982;-76
2021/12/14 03:06:21;;;;;;;14.68;9.60;;;;;;;6.52;81.40;101201.97;5043273;28;20368;-76
2021/12/14 03:08:57;;;;;;;13.50;7.60;;;;;;;6.53;81.30;101213.53;5043158;28;20020;-76
2021/12/14 03:11:23;;;;;;;16.02;8.73;;;;;;;6.56;81.54;101206.22;5044429;28;20493;-76
2021/12/14 03:13:52;;;;;;;14.35;8.43;;;;;;;6.55;81.82;101212.50;5045152;28;20035;-76
2021/12/14 03:16:26;;;;;;;12.65;7.57;;;;;;;6.52;81.46;101210.00;5041023;28;20026;-77
2021/12/14 03:18:56;;;;;;;12.93;8.25;;;;;;;6.42;81.25;101206.09;5042984;28;20048;-76
2021/12/14 03:21:23;;;;;;;15.63;7.88;;;;;;;6.34;81.18;101196.78;5043808;28;20044;-77
2021/12/14 03:23:54;;;;;;;13.38;8.65;;;;;;;6.37;81.81;101201.94;5044533;28;20029;-77
2021/12/14 03:26:22;;;;;;;15.05;9.45;;;;;;;6.41;81.85;101212.41;5041142;28;20100;-75
2021/12/14 03:28:52;;;;;;;16.17;9.95;;;;;;;6.39;81.38;101203.59;5045762;28;20096;-76
2021/12/14 03:31:23;;;;;;;15.23;9.48;;;;;;;6.41;81.47;101199.03;5041483;28;20028;-76
2021/12/14 03:33:54;;;;;;;15.80;8.82;;;;;;;6.41;81.82;101209.72;5044782;28;20105;-76
2021/12/14 03:36:30;;;;;;;13.50;8.27;;;;;;;6.41;81.79;101203.50;5041651;28;20038;-76
2021/12/14 03:39:05;;;;;;;16.35;9.52;;;;;;;6.39;81.84;101211.59;5040337;28;20033;-76
2021/12/14 03:41:37;;;;;;;14.85;9.50;;;;;;;6.40;81.47;101210.66;5042757;28;20026;-76
2021/12/14 03:44:11;;;;;;;18.23;11.00;;;;;;;6.30;81.37;101203.25;5040300;28;20059;-76
2021/12/14 03:46:44;;;;;;;21.23;9.82;;;;;;;6.28;81.63;101199.78;5040081;28;20040;-76
2021/12/14 03:49:10;;;;;;;14.73;9.25;;;;;;;6.35;81.88;101198.50;5042252;28;20033;-76
2021/12/14 03:51:38;;;;;;;15.18;9.77;;;;;;;6.43;81.94;101198.94;5044461;28;20021;-76
2021/12/14 03:54:04;;;;;;;14.07;8.25;;;;;;;6.40;81.82;101202.66;5044100;28;20099;-76
2021/12/14 03:56:30;;;;;;;16.25;9.23;;;;;;;6.44;81.73;101198.88;5042798;28;20041;-76
2021/12/14 03:58:56;;;;;;;15.55;8.95;;;;;;;6.47;81.61;101188.00;5040272;28;20025;-76
2021/12/14 04:01:27;;;;;;;14.90;10.15;;;;;;;6.40;81.19;101172.41;5044213;28;20021;-76
2021/12/14 04:03:57;;;;;;;13.50;9.07;;;;;;;6.34;81.46;101186.97;5044868;28;20044;-77
2021/12/14 04:06:23;;;;;;;17.13;10.52;;;;;;;6.44;82.08;101185.50;5043699;28;20013;-77
2021/12/14 04:08:50;;;;;;;13.55;8.60;;;;;;;6.37;82.24;101181.44;5042456;28;20060;-76
2021/12/14 04:11:16;;;;;;;13.15;8.32;;;;;;;6.39;82.19;101192.91;5040330;28;20460;-77
2021/12/14 04:13:46;;;;;;;12.70;8.30;;;;;;;6.47;81.99;101196.03;5046559;28;20053;-76
2021/12/14 04:16:15;;;;;;;16.25;10.48;;;;;;;6.41;81.86;101185.69;5049161;28;20057;-76
2021/12/14 04:18:41;;;;;;;13.88;8.48;;;;;;;6.38;82.15;101187.66;5040922;28;20405;-77
2021/12/14 04:21:07;;;;;;;14.43;8.75;;;;;;;6.40;82.38;101186.63;5043304;28;20053;-76
2021/12/14 04:23:39;;;;;;;13.60;8.63;;;;;;;6.29;81.65;101178.34;5023612;28;20407;-75
2021/12/14 04:26:07;;;;;;;14.77;7.85;;;;;;;6.32;81.71;101171.97;5042386;28;20535;-76
2021/12/14 04:28:38;;;;;;;12.13;8.35;;;;;;;6.29;80.95;101186.34;5043719;28;20028;-76
2021/12/14 04:31:03;;;;;;;11.45;6.93;;;;;;;6.24;81.01;101175.03;5042579;28;20078;-77
2021/12/14 04:33:33;;;;;;;11.23;7.47;;;;;;;6.21;81.26;101188.56;5041467;28;20021;-76
2021/12/14 04:36:03;;;;;;;11.10;6.95;;;;;;;6.21;81.17;101201.91;5040567;28;20108;-76
2021/12/14 04:38:31;;;;;;;14.15;8.25;;;;;;;6.18;80.94;101196.75;5044503;28;20098;-76
2021/12/14 04:52:09;;;;;;;16.00;9.50;;;;;;;6.19;80.70;101205.63;5042630;28;20044;-76
2021/12/14 04:54:45;;;;;;;18.10;11.27;;;;;;;6.24;81.03;101212.44;5041190;28;20044;-76
2021/12/14 04:57:37;;;;;;;18.08;10.43;;;;;;;6.10;80.90;101215.00;5041041;28;20678;-76
2021/12/14 05:00:25;;;;;;;19.17;11.07;;;;;;;6.16;81.30;101214.66;5040286;28;20105;-76
2021/12/14 05:02:54;;;;;;;22.45;11.80;;;;;;;6.21;81.65;101212.59;5042245;28;20083;-77
2021/12/14 05:05:24;;;;;;;23.45;12.25;;;;;;;6.12;81.54;101218.44;5039278;28;20025;-76
2021/12/14 05:09:20;;;;;;;22.10;13.00;;;;;;;6.14;82.15;101219.25;5041123;28;20103;-77
2021/12/14 05:11:03;;;;;;;32.75;16.08;;;;;;;6.17;81.95;101232.44;5043104;28;20032;-77
2021/12/14 05:13:35;;;;;;;30.85;15.77;;;;;;;6.19;82.04;101224.31;5036463;28;20025;-77
2021/12/14 05:16:03;;;;;;;;;;;;;;;6.14;82.13;101248.63;5042073;28;20490;-76
2021/12/14 05:18:28;;;;;;;27.15;14.25;;;;;;;6.13;82.37;101238.88;5039625;28;19959;-76
2021/12/14 05:20:54;;;;;;;41.67;19.20;;;;;;;6.05;82.24;101238.44;5042276;28;20022;-76
2021/12/14 05:23:27;;;;;;;35.42;18.77;;;;;;;6.10;82.39;101247.03;5042654;28;20135;-77
2021/12/14 05:25:53;;;;;;;40.30;21.52;;;;;;;6.12;82.76;101239.81;5041678;28;20029;-75
2021/12/14 05:28:20;;;;;;;44.72;22.55;;;;;;;6.16;82.98;101232.50;5036316;28;20137;-76
2021/12/14 05:30:50;;;;;;;43.22;22.17;;;;;;;6.15;83.17;101223.63;5032232;28;20100;-75
2021/12/14 05:33:34;;;;;;;46.92;22.70;;;;;;;6.18;83.54;101227.91;5029916;28;20030;-76
2021/12/14 05:36:05;;;;;;;40.58;21.35;;;;;;;6.19;83.50;101225.19;5041356;28;20463;-77
2021/12/14 05:44:20;;;;;;;47.80;25.15;;;;;;;6.09;83.46;101228.41;5038937;28;20032;-77
2021/12/14 05:46:51;;;;;;;49.20;24.38;;;;;;;6.14;83.50;101237.94;5044142;28;20097;-78
2021/12/14 05:49:21;;;;;;;46.30;23.95;;;;;;;6.19;83.88;101235.88;5043225;28;20093;-76
2021/12/14 05:51:51;;;;;;;50.20;23.10;;;;;;;6.14;83.58;101248.63;5053243;28;20021;-77
2021/12/14 05:54:25;;;;;;;44.72;23.90;;;;;;;6.16;83.75;101249.38;5056888;28;20021;-76
2021/12/14 05:56:52;;;;;;;41.13;21.88;;;;;;;6.13;83.74;101249.56;5050189;28;20022;-76
2021/12/14 05:59:24;;;;;;;50.03;25.33;;;;;;;5.98;83.78;101245.03;5042206;28;20056;-79
2021/12/14 06:01:50;;;;;;;46.13;23.48;;;;;;;5.96;84.09;101254.94;5044201;28;20035;-78
2021/12/14 06:04:16;;;;;;;42.08;23.27;;;;;;;6.09;84.31;101256.00;5046550;28;20048;-77
2021/12/14 06:06:48;;;;;;;42.90;23.15;;;;;;;6.09;84.51;101252.44;5043231;28;20051;-76
2021/12/14 06:09:18;;;;;;;44.10;23.67;;;;;;;6.09;84.79;101249.78;5046258;28;20021;-74
2021/12/14 06:11:46;;;;;;;55.92;27.00;;;;;;;6.06;84.77;101258.81;5027017;28;20384;-76
2021/12/14 06:14:19;;;;;;;60.75;28.42;;;;;;;6.10;84.50;101255.06;5046995;28;20471;-79
2021/12/14 06:16:47;;;;;;;59.85;28.13;;;;;;;6.16;84.31;101257.41;5042145;28;20083;-79
2021/12/14 06:19:15;;;;;;;48.03;26.63;;;;;;;6.15;84.03;101277.03;5045737;28;20478;-76
2021/12/14 06:21:40;;;;;;;50.58;28.48;;;;;;;6.07;83.15;101262.34;5046649;28;20105;-77
2021/12/14 06:24:08;;;;;;;50.15;26.58;;;;;;;6.15;83.30;101271.69;5043386;28;20447;-78
2021/12/14 06:26:35;;;;;;;51.40;26.30;;;;;;;6.07;83.24;101268.56;5035861;28;20030;-79
2021/12/14 06:29:11;;;;;;;46.10;25.25;;;;;;;6.15;84.16;101276.16;5038458;28;20548;-77
2021/12/14 06:31:37;;;;;;;48.72;26.05;;;;;;;6.27;84.27;101276.38;5042527;28;20033;-80
2021/12/14 06:34:25;;;;;;;48.35;25.98;;;;;;;6.23;84.08;101285.53;5038016;28;20409;-80
2021/12/14 06:37:06;;;;;;;56.83;28.48;;;;;;;6.28;83.82;101286.13;5036288;28;20102;-77
2021/12/14 06:39:57;;;;;;;54.50;28.45;;;;;;;6.32;83.55;101282.34;5034878;28;20110;-79
2021/12/14 06:42:23;;;;;;;51.08;29.13;;;;;;;6.41;83.32;101284.53;5035996;28;20039;-77
2021/12/14 06:44:48;;;;;;;52.30;29.38;;;;;;;6.52;82.67;101278.59;5036029;28;20527;-79
2021/12/14 06:47:14;;;;;;;62.08;27.70;;;;;;;6.43;82.40;101263.94;5036031;28;20022;-79
2021/12/14 06:49:41;;;;;;;50.63;26.83;;;;;;;6.50;82.28;101284.03;5035522;28;20395;-80
2021/12/14 06:52:07;;;;;;;47.83;28.40;;;;;;;6.42;82.15;101280.91;5036570;28;20037;-79
2021/12/14 06:54:32;;;;;;;45.40;24.25;;;;;;;6.51;81.85;101279.56;5044650;28;20041;-79
2021/12/14 06:57:02;;;;;;;46.97;25.40;;;;;;;6.42;81.76;101283.56;5046764;28;20055;-78
2021/12/14 06:59:28;;;;;;;50.33;26.90;;;;;;;6.38;81.67;101282.03;5057181;28;20039;-81
2021/12/14 07:02:03;;;;;;;61.30;29.23;;;;;;;6.42;81.72;101288.91;5058293;28;20021;-80
2021/12/14 07:04:31;;;;;;;50.22;26.85;;;;;;;6.49;82.03;101294.78;5049752;28;20048;-79
2021/12/14 07:07:00;;;;;;;54.13;28.02;;;;;;;6.54;81.86;101295.44;5055951;28;20086;-78
2021/12/14 07:09:38;;;;;;;58.22;30.10;;;;;;;6.54;81.39;101300.78;5054775;28;20520;-78
2021/12/14 07:12:04;;;;;;;44.58;24.85;;;;;;;6.53;81.44;101312.41;5054496;28;20104;-79
2021/12/14 07:14:44;;;;;;;55.42;28.88;;;;;;;6.61;81.13;101306.63;5054756;28;20562;-77
2021/12/14 07:17:12;;;;;;;55.28;28.70;;;;;;;6.55;80.69;101324.72;5053230;28;20029;-76
2021/12/14 07:19:58;;;;;;;50.83;26.45;;;;;;;6.50;80.89;101320.59;5016466;28;20033;-76
2021/12/14 07:22:28;;;;;;;44.90;25.25;;;;;;;6.41;80.88;101324.63;5035805;28;20053;-77
2021/12/14 07:25:05;;;;;;;54.85;29.25;;;;;;;6.47;80.98;101337.66;5019565;28;20480;-77
2021/12/14 07:27:42;;;;;;;49.50;26.52;;;;;;;6.47;80.50;101329.63;5043723;28;20013;-77
2021/12/14 07:30:17;;;;;;;49.83;25.58;;;;;;;6.53;80.32;101331.97;5053174;28;20060;-76
2021/12/14 07:32:51;;;;;;;53.35;27.27;;;;;;;6.59;80.20;101325.44;5041474;28;20043;-76
2021/12/14 07:35:16;;;;;;;68.57;31.65;;;;;;;6.47;80.16;101331.44;5059517;28;20059;-78
2021/12/14 07:37:43;;;;;;;63.60;31.33;;;;;;;6.55;79.79;101327.41;5041223;28;20416;-78
2021/12/14 07:40:10;;;;;;;46.80;24.85;;;;;;;6.67;80.04;101333.88;5038394;28;20021;-78
2021/12/14 07:42:36;;;;;;;41.88;23.40;;;;;;;6.78;79.01;101342.22;5033629;28;20056;-79
2021/12/14 07:45:03;;;;;;;50.75;25.63;;;;;;;6.83;79.23;101334.78;5033556;28;20126;-76
2021/12/14 07:47:29;;;;;;;41.50;24.52;;;;;;;6.95;79.26;101330.56;5033815;28;20021;-75
2021/12/14 07:49:56;;;;;;;46.22;26.08;;;;;;;6.89;78.93;101345.16;5050300;28;20147;-77
2021/12/14 07:52:36;;;;;;;47.08;24.35;;;;;;;6.87;78.59;101335.50;5047736;28;20039;-78
2021/12/14 07:55:10;;;;;;;41.42;24.92;;;;;;;6.84;78.67;101346.34;5053240;28;20021;-77
2021/12/14 07:57:37;;;;;;;46.45;25.02;;;;;;;6.82;78.18;101340.25;5053004;28;20056;-78
2021/12/14 08:00:06;;;;;;;47.97;25.23;;;;;;;6.92;77.52;101344.97;5043101;28;20049;-76
2021/12/14 08:02:37;;;;;;;45.40;26.33;;;;;;;6.90;78.29;101346.03;5043513;28;20025;-77
2021/12/14 08:05:24;;;;;;;43.65;24.55;;;;;;;7.01;78.37;101354.31;5043756;28;20110;-77
2021/12/14 08:08:10;;;;;;;48.65;23.50;;;;;;;6.88;77.18;101339.91;5040110;28;20021;-78
2021/12/14 08:10:40;;;;;;;51.70;27.38;;;;;;;6.86;78.28;101341.78;5038376;28;20036;-79
2021/12/14 08:13:19;;;;;;;42.72;23.25;;;;;;;6.81;78.14;101341.19;5047375;28;20028;-79
2021/12/14 08:16:10;;;;;;;47.35;24.55;;;;;;;6.80;77.95;101334.97;5034448;28;20116;-77
2021/12/14 08:18:37;;;;;;;56.17;26.33;;;;;;;6.88;78.73;101326.53;5034220;28;20491;-79
2021/12/14 08:21:11;;;;;;;46.05;23.58;;;;;;;6.90;78.07;101325.50;5032940;28;20104;-78
2021/12/14 08:23:41;;;;;;;46.58;25.33;;;;;;;7.02;78.53;101318.59;5033130;28;20077;-78
2021/12/14 08:26:14;;;;;;;42.88;24.67;;;;;;;7.16;78.94;101332.06;5032564;28;20419;-78
2021/12/14 08:28:47;;;;;;;35.53;22.20;;;;;;;7.17;78.44;101328.44;5033120;28;20026;-79
2021/12/14 08:31:12;;;;;;;41.65;22.92;;;;;;;7.19;78.27;101326.53;5031561;28;20025;-79
2021/12/14 08:33:38;;;;;;;37.83;21.27;;;;;;;7.26;77.73;101343.97;5033740;28;20470;-79
2021/12/14 08:36:06;;;;;;;41.20;24.58;;;;;;;7.32;78.04;101338.28;5033316;28;20057;-79
2021/12/14 08:38:34;;;;;;;45.92;26.70;;;;;;;7.38;77.55;101342.41;5034507;28;20044;-80
2021/12/14 08:41:15;;;;;;;38.22;21.88;;;;;;;7.36;77.45;101339.84;5033626;28;20503;-79
2021/12/14 08:43:48;;;;;;;34.33;20.52;;;;;;;7.30;77.34;101334.84;5031964;28;20503;-80
2021/12/14 08:46:19;;;;;;;38.85;23.52;;;;;;;7.46;77.10;101334.84;5033616;28;20116;-80
2021/12/14 08:48:57;;;;;;;40.70;23.92;;;;;;;7.47;76.56;101348.09;5034043;28;20483;-80
2021/12/14 08:51:32;;;;;;;36.05;20.75;;;;;;;7.47;76.36;101332.06;5033959;28;20021;-80
2021/12/14 08:54:21;;;;;;;42.38;23.42;;;;;;;7.52;77.20;101345.19;5036293;28;20035;-81
2021/12/14 08:56:59;;;;;;;39.30;22.95;;;;;;;7.34;75.95;101308.78;5033886;28;20033;-80
2021/12/14 08:59:24;;;;;;;40.10;22.83;;;;;;;7.28;76.04;101327.84;5034506;28;20021;-80
2021/12/14 09:01:51;;;;;;;37.10;22.10;;;;;;;7.14;76.03;101323.25;5034005;28;20038;-80
2021/12/14 09:04:25;;;;;;;41.38;22.67;;;;;;;7.06;77.18;101318.31;5034025;28;20030;-81
2021/12/14 09:06:55;;;;;;;39.38;22.92;;;;;;;7.04;77.02;101300.66;5032689;28;20039;-78
2021/12/14 09:09:22;;;;;;;92.57;43.95;;;;;;;7.03;76.90;101315.00;5033163;28;20108;-80
2021/12/14 09:11:57;;;;;;;39.22;22.50;;;;;;;7.03;77.04;101323.00;5055336;28;20349;-80
2021/12/14 09:14:22;;;;;;;35.20;20.67;;;;;;;6.95;76.73;101311.84;5049400;28;20024;-80
2021/12/14 09:16:54;;;;;;;34.90;20.42;;;;;;;6.89;77.03;101304.16;5042096;28;20029;-82
2021/12/14 09:19:27;;;;;;;39.00;22.90;;;;;;;6.94;76.99;101315.50;5044401;28;20419;-82
2021/12/14 09:21:55;;;;;;;40.85;22.27;;;;;;;6.84;77.30;101304.44;5038142;28;20050;-81
2021/12/14 09:24:41;;;;;;;37.17;22.50;;;;;;;6.98;77.40;101317.91;5048749;28;20037;-82
2021/12/14 09:27:10;;;;;;;38.05;21.70;;;;;;;6.90;77.52;101313.94;5040273;28;20508;-75
2021/12/14 09:29:37;;;;;;;36.47;21.95;;;;;;;7.00;77.85;101305.28;5038182;28;20558;-77
2021/12/14 09:32:06;;;;;;;37.92;19.92;;;;;;;6.87;77.53;101304.28;5037151;28;20080;-76
2021/12/14 09:34:34;;;;;;;34.63;21.27;;;;;;;6.93;77.22;101292.38;5050006;28;20020;-77
2021/12/14 09:37:01;;;;;;;33.42;20.80;;;;;;;6.99;77.53;101292.91;5054864;28;20028;-77
2021/12/14 09:39:32;;;;;;;36.72;20.00;;;;;;;6.92;77.03;101295.97;5058397;28;20029;-76
2021/12/14 09:42:01;;;;;;;34.25;19.92;;;;;;;6.92;77.31;101285.28;5055638;28;20041;-76
2021/12/14 09:44:29;;;;;;;31.88;18.27;;;;;;;6.96;77.17;101282.38;5037465;28;20038;-77
2021/12/14 09:46:58;;;;;;;32.65;19.40;;;;;;;7.01;76.33;101295.47;5036196;28;20452;-76
2021/12/14 09:49:26;;;;;;;26.80;17.15;;;;;;;6.93;75.95;101271.84;5034511;28;20021;-76
2021/12/14 09:52:11;;;;;;;31.73;18.90;;;;;;;7.05;75.96;101283.66;5035912;28;20029;-76
2021/12/14 09:54:37;;;;;;;28.27;16.85;;;;;;;7.11;75.90;101277.97;5035852;28;20021;-75
2021/12/14 09:57:08;;;;;;;43.90;18.05;;;;;;;7.29;75.99;101263.53;5036795;28;20451;-77
2021/12/14 09:59:37;;;;;;;33.20;19.70;;;;;;;7.34;75.22;101279.34;5036562;28;20181;-77
2021/12/14 10:02:21;;;;;;;37.92;21.52;;;;;;;7.36;75.23;101270.28;5036335;28;20407;-75
2021/12/14 10:04:52;;;;;;;29.95;17.52;;;;;;;7.30;74.91;101256.38;5035924;28;20029;-77
2021/12/14 10:07:20;;;;;;;29.87;18.60;;;;;;;7.35;74.02;101254.28;5034676;28;20026;-78
2021/12/14 10:09:48;;;;;;;30.75;18.75;;;;;;;7.34;74.08;101261.44;5035433;28;20399;-78
2021/12/14 10:15:11;;;;;;;43.15;20.63;;;;;;;7.32;73.79;101279.41;5035153;28;20569;-78
2021/12/14 10:17:40;;;;;;;34.85;19.80;;;;;;;7.38;74.22;101286.22;5035345;28;20443;-78
2021/12/14 10:20:08;;;;;;;35.05;19.92;;;;;;;7.22;73.71;101278.19;5035316;28;20055;-79
2021/12/14 10:22:35;;;;;;;31.38;19.13;;;;;;;7.24;74.31;101270.97;5050180;28;20152;-78
2021/12/14 10:25:08;;;;;;;34.72;19.00;;;;;;;7.18;73.82;101271.31;5042690;28;20057;-78
2021/12/14 10:27:35;;;;;;;35.05;18.85;;;;;;;6.95;74.21;101264.59;5030862;28;20395;-78
2021/12/14 10:30:05;;;;;;;34.63;19.98;;;;;;;6.97;74.94;101278.72;5037032;28;20379;-78
2021/12/14 10:32:34;;;;;;;34.22;20.13;;;;;;;7.00;74.97;101278.56;5034628;28;20089;-77
2021/12/14 10:35:06;;;;;;;99.20;43.97;;;;;;;7.03;74.84;101283.72;5032559;28;20060;-78
2021/12/14 10:37:53;;;;;;;;;;;;;;;6.98;75.45;101296.50;5033949;28;20033;-80
2021/12/14 10:43:20;;;;;;;36.03;20.10;;;;;;;6.86;75.53;101272.25;5034663;28;20402;-78
2021/12/14 10:46:14;;;;;;;35.15;19.52;;;;;;;6.72;75.09;101277.53;5017238;28;20037;-79
2021/12/14 10:48:44;;;;;;;33.15;20.25;;;;;;;6.80;76.18;101269.94;5035647;28;20029;-78
2021/12/14 10:51:13;;;;;;;48.92;22.35;;;;;;;6.67;76.11;101252.84;5035758;28;20060;-79
2021/12/14 10:53:43;;;;;;;38.40;20.13;;;;;;;6.82;76.54;101262.72;5041751;28;20029;-78
2021/12/14 10:56:22;;;;;;;50.65;24.55;;;;;;;6.75;76.30;101247.94;5048861;28;20048;-78
2021/12/14 10:58:50;;;;;;;49.03;21.92;;;;;;;6.82;76.25;101257.34;5017773;28;20137;-78
2021/12/14 11:01:20;;;;;;;30.80;19.00;;;;;;;6.76;75.71;101258.53;5037468;28;20469;-78
2021/12/14 11:03:52;;;;;;;40.50;23.85;;;;;;;6.66;75.68;101267.16;5037250;28;20037;-79
2021/12/14 11:06:22;;;;;;;;;;;;;;;6.81;76.64;101279.69;5038927;28;20388;-79
2021/12/14 11:11:53;;;;;;;41.00;21.27;;;;;;;6.98;75.70;101284.94;5035199;28;20537;-78
2021/12/14 11:14:25;;;;;;;32.10;19.50;;;;;;;6.92;74.22;101264.75;5034434;28;20112;-80
2021/12/14 11:19:52;;;;;;;32.40;19.52;;;;;;;6.86;74.29;101280.28;5035050;28;20039;-79
2021/12/14 11:22:22;;;;;;;39.90;23.27;;;;;;;6.83;74.33;101284.00;5031031;28;20049;-79
2021/12/14 11:24:58;;;;;;;33.90;19.83;;;;;;;6.84;73.81;101291.06;5035125;28;20021;-77
2021/12/14 11:27:45;;;;;;;27.10;16.27;;;;;;;6.91;73.94;101283.59;5034127;28;20025;-77
2021/12/14 11:30:18;;;;;;;31.50;19.02;;;;;;;6.90;75.02;101282.72;5035981;28;20384;-77
2021/12/14 11:33:05;;;;;;;31.60;18.30;;;;;;;6.82;74.04;101284.09;5037830;28;20025;-82
2021/12/14 11:35:35;;;;;;;45.17;18.42;;;;;;;6.80;74.43;101275.28;5033362;28;20131;-77
2021/12/14 11:38:07;;;;;;;34.60;18.83;;;;;;;6.89;74.65;101274.75;5032420;28;20487;-75
2021/12/14 11:40:33;;;;;;;50.28;20.83;;;;;;;6.99;74.35;101270.63;5033986;28;20074;-76
2021/12/14 11:43:14;;;;;;;101.10;24.17;;;;;;;7.16;74.54;101265.19;5031229;28;20034;-77
2021/12/14 11:45:41;;;;;;;36.58;18.67;;;;;;;7.28;74.06;101245.75;5032571;28;20029;-76
2021/12/14 11:48:08;;;;;;;36.22;18.48;;;;;;;7.25;73.51;101251.28;5033451;28;20025;-75
2021/12/14 11:50:39;;;;;;;38.85;18.58;;;;;;;7.30;73.12;101249.22;5033290;28;20025;-75
2021/12/14 11:53:13;;;;;;;34.50;20.10;;;;;;;7.33;72.90;101238.34;5032890;28;20156;-77
2021/12/14 11:55:41;;;;;;;67.95;17.27;;;;;;;7.13;72.05;101255.53;5032977;28;20021;-77
2021/12/14 11:58:12;;;;;;;40.13;18.98;;;;;;;7.13;72.20;101238.59;5031715;28;20033;-77
2021/12/14 12:01:03;;;;;;;32.67;17.80;;;;;;;7.11;72.22;101257.44;5034166;28;20376;-76
2021/12/14 12:03:43;;;;;;;37.58;18.63;;;;;;;7.03;72.31;101285.56;5013082;28;20445;-77
2021/12/14 12:12:14;;;;;;;37.70;16.67;;;;;;;6.98;72.57;101276.91;5033477;28;20040;-78
2021/12/14 12:14:58;;;;;;;31.40;18.70;;;;;;;6.96;72.68;101286.84;5026612;28;20068;-80
2021/12/14 12:17:32;;;;;;;27.92;17.30;;;;;;;6.91;72.91;101263.03;5034277;28;20021;-80
2021/12/14 12:20:06;;;;;;;30.77;16.75;;;;;;;6.86;72.44;101266.91;5034651;28;20033;-81
2021/12/14 12:22:43;;;;;;;40.67;17.27;;;;;;;6.92;72.79;101263.91;5043847;28;20127;-79
2021/12/14 12:25:15;;;;;;;32.72;17.63;;;;;;;6.95;72.30;101272.63;5053495;28;20041;-81